Weather at RAF Lossiemouth

Public forecast

Using degrees Celsius for public forecast. Weather courtesy of forecast.io.

Current aviation weather report (METAR) for RAF Lossiemouth

Retrieved 2021/10/28 04:50 UTC (11 minutes ago):

EGQS 280450Z 00000KT 9999 BKN035 OVC180 10/08 Q0996 RMK BLU

Aviation forecast (TAF) for RAF Lossiemouth

Retrieved 2021-10-28 03:08 UTC (2 hours ago):

TAF EGQS 280100Z 2803/2821 20005KT 9999 SCT035 PROB30 TEMPO 2812/2817 7000 RA